createdAt,value
2019-05-05T00:00:59.413Z,100717.41
2019-05-05T00:03:50.788Z,100718.37
2019-05-05T00:06:34.137Z,100715.67
2019-05-05T00:09:05.418Z,100712.48
2019-05-05T00:11:55.492Z,100721.59
2019-05-05T00:14:29.657Z,100717.63
2019-05-05T00:17:01.910Z,100725.53
2019-05-05T00:19:32.657Z,100727.02
2019-05-05T00:21:57.273Z,100728.78
2019-05-05T00:24:24.515Z,100730.78
2019-05-05T00:26:51.622Z,100734.25
2019-05-05T00:29:18.328Z,100731.05
2019-05-05T00:31:45.408Z,100729.51
2019-05-05T00:34:12.294Z,100733.84
2019-05-05T00:36:39.092Z,100737.12
2019-05-05T00:39:06.684Z,100740.63
2019-05-05T00:41:34.669Z,100736.62
2019-05-05T00:44:04.615Z,100735.33
2019-05-05T00:46:49.545Z,100737.11
2019-05-05T00:49:16.241Z,100730.78
2019-05-05T00:51:44.317Z,100736.70
2019-05-05T00:54:11.114Z,100734.56
2019-05-05T00:56:37.824Z,100742.23
2019-05-05T00:59:07.169Z,100742.88
2019-05-05T01:01:55.302Z,100744.29
2019-05-05T01:04:28.811Z,100741.69
2019-05-05T01:06:55.528Z,100745.83
2019-05-05T01:09:25.200Z,100746.16
2019-05-05T01:11:51.921Z,100748.94
2019-05-05T01:14:18.805Z,100750.03
2019-05-05T01:16:45.659Z,100756.12
2019-05-05T01:19:12.478Z,100750.34
2019-05-05T01:21:39.430Z,100748.97
2019-05-05T01:24:06.402Z,100755.20
2019-05-05T01:26:37.078Z,100754.89
2019-05-05T01:29:05.978Z,100761.33
2019-05-05T01:31:34.665Z,100758.48
2019-05-05T01:34:24.424Z,100757.45
2019-05-05T01:36:57.325Z,100755.52
2019-05-05T01:39:30.814Z,100760.34
2019-05-05T01:42:00.433Z,100765.45
2019-05-05T01:44:27.204Z,100767.84
2019-05-05T01:46:55.070Z,100769.53
2019-05-05T01:49:21.952Z,100771.73
2019-05-05T01:51:48.834Z,100772.28
2019-05-05T01:54:15.502Z,100766.89
2019-05-05T01:56:44.398Z,100773.84
2019-05-05T01:59:11.072Z,100773.02
2019-05-05T02:01:37.844Z,100780.36
2019-05-05T02:04:05.559Z,100775.91
2019-05-05T02:06:34.871Z,100773.31
2019-05-05T02:09:01.291Z,100775.70
2019-05-05T02:11:29.976Z,100776.85
2019-05-05T02:13:56.856Z,100786.17
2019-05-05T02:16:25.325Z,100774.31
2019-05-05T02:18:54.298Z,100779.91
2019-05-05T02:21:21.042Z,100781.32
2019-05-05T02:23:47.814Z,100779.30
2019-05-05T02:26:15.256Z,100778.57
2019-05-05T02:29:05.875Z,100776.25
2019-05-05T02:31:40.460Z,100776.20
2019-05-05T02:34:09.389Z,100777.66
2019-05-05T02:36:36.074Z,100780.67
2019-05-05T02:39:05.420Z,100779.95
2019-05-05T02:41:36.067Z,100778.25
2019-05-05T02:44:05.102Z,100780.44
2019-05-05T02:46:45.013Z,100778.78
2019-05-05T02:49:15.127Z,100779.25
2019-05-05T02:51:44.542Z,100778.50
2019-05-05T02:54:11.257Z,100786.08
2019-05-05T02:56:44.020Z,100783.98
2019-05-05T02:59:17.428Z,100785.35
2019-05-05T03:01:50.812Z,100787.73
2019-05-05T03:04:17.884Z,100790.30
2019-05-05T03:06:47.707Z,100793.59
2019-05-05T03:09:15.290Z,100798.72
2019-05-05T03:11:43.687Z,100797.47
2019-05-05T03:14:11.760Z,100789.33
2019-05-05T03:16:39.030Z,100790.66
2019-05-05T03:19:08.062Z,100791.38
2019-05-05T03:21:35.329Z,100793.08
2019-05-05T03:24:03.704Z,100801.19
2019-05-05T03:26:30.704Z,100800.86
2019-05-05T03:28:58.903Z,100801.31
2019-05-05T03:31:26.745Z,100802.77
2019-05-05T03:33:54.977Z,100809.28
2019-05-05T03:36:21.997Z,100810.37
2019-05-05T03:38:49.283Z,100813.86
2019-05-05T03:41:23.841Z,100820.25
2019-05-05T03:44:09.937Z,100817.78
2019-05-05T03:46:36.852Z,100823.05
2019-05-05T03:49:04.800Z,100828.07
2019-05-05T03:51:31.835Z,100831.05
2019-05-05T03:53:58.635Z,100833.30
2019-05-05T03:56:26.433Z,100835.39
2019-05-05T03:58:54.277Z,100830.45
2019-05-05T04:01:34.715Z,100835.77
2019-05-05T04:04:19.661Z,100842.48
2019-05-05T04:06:47.852Z,100839.28
2019-05-05T04:09:15.765Z,100846.02
2019-05-05T04:11:44.347Z,100838.59
2019-05-05T04:14:14.066Z,100848.39
2019-05-05T04:16:47.006Z,100845.69
2019-05-05T04:19:14.602Z,100849.90
2019-05-05T04:21:41.363Z,100849.11
2019-05-05T04:24:08.152Z,100851.09
2019-05-05T04:26:35.823Z,100857.86
2019-05-05T04:29:05.310Z,100860.97
2019-05-05T04:31:31.309Z,100863.56
2019-05-05T04:33:57.991Z,100862.95
2019-05-05T04:36:24.997Z,100865.84
2019-05-05T04:38:52.005Z,100871.99
2019-05-05T04:41:18.803Z,100872.19
2019-05-05T04:43:45.490Z,100874.45
2019-05-05T04:46:13.984Z,100872.01
2019-05-05T04:48:46.592Z,100870.97
2019-05-05T04:51:20.453Z,100866.33
2019-05-05T04:54:06.592Z,100875.45
2019-05-05T04:56:34.671Z,100868.49
2019-05-05T04:59:03.852Z,100876.85
2019-05-05T05:01:30.413Z,100878.31
2019-05-05T05:04:24.308Z,100876.97
2019-05-05T05:06:54.294Z,100887.38
2019-05-05T05:09:21.111Z,100887.83
2019-05-05T05:11:47.912Z,100889.13
2019-05-05T05:14:14.693Z,100892.87
2019-05-05T05:16:43.599Z,100892.05
2019-05-05T05:19:10.218Z,100901.11
2019-05-05T05:21:36.994Z,100901.05
2019-05-05T05:24:04.078Z,100902.11
2019-05-05T05:26:30.889Z,100901.48
2019-05-05T05:28:57.864Z,100905.33
2019-05-05T05:31:24.919Z,100910.52
2019-05-05T05:33:51.862Z,100919.06
2019-05-05T05:36:18.673Z,100921.28
2019-05-05T05:38:47.269Z,100922.35
2019-05-05T05:41:16.094Z,100930.16
2019-05-05T05:44:08.362Z,100933.87
2019-05-05T05:47:03.490Z,100932.88
2019-05-05T05:49:54.433Z,100936.75
2019-05-05T05:52:21.462Z,100936.81
2019-05-05T05:54:48.138Z,100937.30
2019-05-05T05:57:14.880Z,100938.81
2019-05-05T05:59:41.697Z,100941.44
2019-05-05T06:02:12.397Z,100944.52
2019-05-05T06:04:37.031Z,100943.81
2019-05-05T06:07:04.248Z,100947.61
2019-05-05T06:09:31.318Z,100954.39
2019-05-05T06:11:58.093Z,100959.79
2019-05-05T06:14:24.790Z,100966.88
2019-05-05T06:16:53.969Z,100972.98
2019-05-05T06:19:29.665Z,100973.07
2019-05-05T06:21:56.592Z,100967.94
2019-05-05T06:24:24.010Z,100970.16
2019-05-05T06:26:51.609Z,100970.66
2019-05-05T06:29:18.537Z,100970.44
2019-05-05T06:31:45.204Z,100978.95
2019-05-05T06:34:13.963Z,100978.38
2019-05-05T06:36:40.780Z,100986.13
2019-05-05T06:39:07.985Z,100989.32
2019-05-05T06:41:43.779Z,100985.64
2019-05-05T06:44:19.434Z,100991.66
2019-05-05T06:47:04.896Z,100988.84
2019-05-05T06:49:31.709Z,100992.05
2019-05-05T06:51:59.418Z,100990.36
2019-05-05T06:54:28.309Z,100995.38
2019-05-05T06:56:55.091Z,100993.43
2019-05-05T06:59:21.789Z,100991.45
2019-05-05T07:01:48.477Z,100998.72
2019-05-05T07:04:15.173Z,101002.96
2019-05-05T07:06:53.561Z,101003.21
2019-05-05T07:09:10.736Z,101008.19
2019-05-05T07:11:37.527Z,101005.20
2019-05-05T07:14:05.922Z,101009.20
2019-05-05T07:16:34.494Z,101017.33
2019-05-05T07:19:01.390Z,101017.45
2019-05-05T07:21:28.187Z,101019.08
2019-05-05T07:23:54.853Z,101014.72
2019-05-05T07:26:23.785Z,101017.41
2019-05-05T07:28:50.697Z,101020.77
2019-05-05T07:31:17.462Z,101015.63
2019-05-05T07:33:44.242Z,101016.66
2019-05-05T07:36:30.692Z,101015.12
2019-05-05T07:38:57.557Z,101016.55
2019-05-05T07:41:24.338Z,101012.73
2019-05-05T07:43:51.128Z,101019.64
2019-05-05T07:46:17.967Z,101018.43
2019-05-05T07:48:44.653Z,101016.55
2019-05-05T07:51:11.343Z,101022.73
2019-05-05T07:53:38.115Z,101015.52
2019-05-05T07:56:07.646Z,101023.30
2019-05-05T07:58:34.530Z,101023.89
2019-05-05T08:01:01.753Z,101031.61
2019-05-05T08:03:28.929Z,101027.85
2019-05-05T08:05:57.192Z,101029.19
2019-05-05T08:08:24.469Z,101028.34
2019-05-05T08:10:51.259Z,101022.70
2019-05-05T08:13:18.089Z,101025.60
2019-05-05T08:15:56.237Z,101024.50
2019-05-05T08:18:27.526Z,101033.28
2019-05-05T08:20:56.830Z,101025.59
2019-05-05T08:23:36.385Z,101031.13
2019-05-05T08:26:18.268Z,101028.52
2019-05-05T08:28:50.370Z,101028.55
2019-05-05T08:31:22.127Z,101024.09
2019-05-05T08:33:48.895Z,101027.81
2019-05-05T08:36:15.568Z,101032.72
2019-05-05T08:38:44.148Z,101037.58
2019-05-05T08:41:11.061Z,101033.28
2019-05-05T08:43:37.865Z,101034.94
2019-05-05T08:46:05.000Z,101033.11
2019-05-05T08:48:34.024Z,101038.48
2019-05-05T08:51:00.460Z,101035.72
2019-05-05T08:53:41.164Z,101033.65
2019-05-05T08:55:56.158Z,101035.69
2019-05-05T08:58:23.797Z,101029.03
2019-05-05T09:00:50.660Z,101034.22
2019-05-05T09:03:17.427Z,101036.65
2019-05-05T09:05:44.190Z,101029.85
2019-05-05T09:08:11.082Z,101032.89
2019-05-05T09:10:38.165Z,101029.71
2019-05-05T09:13:04.847Z,101028.38
2019-05-05T09:15:33.631Z,101028.22
2019-05-05T09:18:00.389Z,101026.45
2019-05-05T09:20:27.174Z,101024.47
2019-05-05T09:22:57.204Z,101024.47
2019-05-05T09:25:34.171Z,101019.34
2019-05-05T09:28:06.554Z,101017.09
2019-05-05T09:30:36.177Z,101017.97
2019-05-05T09:33:03.630Z,101017.97
2019-05-05T09:35:30.498Z,101020.06
2019-05-05T09:37:57.200Z,101020.06
2019-05-05T09:40:34.466Z,101021.14
2019-05-05T09:43:01.162Z,101022.57
2019-05-05T09:45:27.937Z,101023.95
2019-05-05T09:47:54.801Z,101032.52
2019-05-05T09:50:23.597Z,101034.03
2019-05-05T09:52:50.157Z,101034.03
2019-05-05T09:55:16.826Z,101040.17
2019-05-05T09:57:43.887Z,101041.72
2019-05-05T10:00:14.013Z,101048.15
2019-05-05T10:02:41.079Z,101052.17
2019-05-05T10:05:08.151Z,101052.17
2019-05-05T10:07:34.927Z,101055.19
2019-05-05T10:10:01.718Z,101051.30
2019-05-05T10:12:28.593Z,101050.86
2019-05-05T10:14:55.277Z,101057.05
2019-05-05T10:17:24.249Z,101053.28
2019-05-05T10:19:50.543Z,101053.28
2019-05-05T10:22:17.262Z,101059.51
2019-05-05T10:24:55.204Z,101070.25
2019-05-05T10:27:22.342Z,101070.25
2019-05-05T10:29:49.539Z,101063.13
2019-05-05T10:32:16.558Z,101063.13
2019-05-05T10:34:45.384Z,101056.91
2019-05-05T10:37:14.128Z,101059.32
2019-05-05T10:39:46.920Z,101059.32
2019-05-05T10:42:14.601Z,101053.22
2019-05-05T10:44:41.301Z,101044.05
2019-05-05T10:47:08.404Z,101048.34
2019-05-05T10:49:35.586Z,101046.63
2019-05-05T10:52:03.715Z,101053.74
2019-05-05T10:54:41.654Z,101041.34
2019-05-05T10:56:59.195Z,101046.23
2019-05-05T10:59:25.885Z,101049.00
2019-05-05T11:01:53.911Z,101046.36
2019-05-05T11:04:21.148Z,101059.86
2019-05-05T11:06:48.185Z,101054.75
2019-05-05T11:09:15.444Z,101059.69
2019-05-05T11:11:43.867Z,101059.69
2019-05-05T11:14:10.957Z,101062.11
2019-05-05T11:16:37.771Z,101062.11
2019-05-05T11:19:04.653Z,101049.22
2019-05-05T11:21:31.375Z,101057.72
2019-05-05T11:23:58.070Z,101060.94
2019-05-05T11:26:24.865Z,101060.94
2019-05-05T11:28:53.713Z,101055.27
2019-05-05T11:31:20.385Z,101057.91
2019-05-05T11:33:54.058Z,101052.76
2019-05-05T11:36:39.070Z,101056.05
2019-05-05T11:39:08.329Z,101065.63
2019-05-05T11:41:35.638Z,101058.37
2019-05-05T11:44:04.096Z,101059.66
2019-05-05T11:46:30.987Z,101047.59
2019-05-05T11:48:57.681Z,101055.44
2019-05-05T11:51:24.989Z,101048.58
2019-05-05T11:53:53.869Z,101055.81
2019-05-05T11:56:20.551Z,101057.71
2019-05-05T11:58:47.449Z,101057.51
2019-05-05T12:01:14.165Z,101063.41
2019-05-05T12:03:41.610Z,101054.53
2019-05-05T12:06:08.373Z,101058.19
2019-05-05T12:08:35.069Z,101057.63
2019-05-05T12:11:04.606Z,101059.83
2019-05-05T12:13:32.112Z,101057.24
2019-05-05T12:16:00.905Z,101059.64
2019-05-05T12:18:28.752Z,101056.79
2019-05-05T12:20:55.535Z,101059.70
2019-05-05T12:23:22.565Z,101058.84
2019-05-05T12:26:19.184Z,101064.82
2019-05-05T12:28:54.543Z,101063.44
2019-05-05T12:31:26.380Z,101056.53
2019-05-05T12:33:54.771Z,101064.87
2019-05-05T12:36:23.666Z,101060.34
2019-05-05T12:38:50.741Z,101054.98
2019-05-05T12:41:20.784Z,101064.37
2019-05-05T12:43:46.389Z,101058.41
2019-05-05T12:46:38.638Z,101066.12
2019-05-05T12:49:06.547Z,101055.48
2019-05-05T12:51:34.302Z,101056.14
2019-05-05T12:54:01.905Z,101062.03
2019-05-05T12:56:29.623Z,101065.23
2019-05-05T12:58:56.378Z,101056.29
2019-05-05T13:01:29.370Z,101059.67
2019-05-05T13:03:56.195Z,101061.92
2019-05-05T13:06:23.962Z,101056.20
2019-05-05T13:08:51.437Z,101059.67
2019-05-05T13:11:18.202Z,101060.47
2019-05-05T13:13:45.066Z,101068.08
2019-05-05T13:16:13.678Z,101069.38
2019-05-05T13:18:40.574Z,101068.76
2019-05-05T13:21:18.621Z,101075.72
2019-05-05T13:24:00.694Z,101069.80
2019-05-05T13:26:33.421Z,101071.72
2019-05-05T13:29:00.086Z,101074.52
2019-05-05T13:31:26.792Z,101071.70
2019-05-05T13:33:54.785Z,101071.26
2019-05-05T13:36:24.188Z,101074.23
2019-05-05T13:38:52.066Z,101074.41
2019-05-05T13:41:20.013Z,101079.03
2019-05-05T13:43:46.869Z,101071.91
2019-05-05T13:46:18.078Z,101072.55
2019-05-05T13:48:44.957Z,101080.08
2019-05-05T13:51:11.728Z,101079.59
2019-05-05T13:53:38.594Z,101084.73
2019-05-05T13:56:11.829Z,101069.84
2019-05-05T13:58:34.335Z,101071.15
2019-05-05T14:01:03.595Z,101079.52
2019-05-05T14:03:30.507Z,101083.14
2019-05-05T14:05:57.167Z,101071.28
2019-05-05T14:08:23.960Z,101074.13
2019-05-05T14:10:50.749Z,101081.66
2019-05-05T14:13:24.573Z,101081.84
2019-05-05T14:15:54.642Z,101080.58
2019-05-05T14:18:23.410Z,101088.63
2019-05-05T14:20:50.234Z,101089.73
2019-05-05T14:23:17.412Z,101089.14
2019-05-05T14:25:44.198Z,101084.86
2019-05-05T14:28:10.997Z,101088.56
2019-05-05T14:30:49.701Z,101085.11
2019-05-05T14:33:19.103Z,101085.73
2019-05-05T14:36:04.997Z,101089.12
2019-05-05T14:38:37.682Z,101086.37
2019-05-05T14:41:04.617Z,101074.70
2019-05-05T14:43:31.406Z,101077.00
2019-05-05T14:45:58.092Z,101087.14
2019-05-05T14:48:24.958Z,101086.52
2019-05-05T14:50:51.644Z,101085.69
2019-05-05T14:53:18.433Z,101072.60
2019-05-05T14:55:45.318Z,101065.34
2019-05-05T14:58:14.236Z,101065.30
2019-05-05T15:00:40.897Z,101071.05
2019-05-05T15:03:07.606Z,101069.48
2019-05-05T15:05:59.710Z,101076.19
2019-05-05T15:08:49.069Z,101076.31
2019-05-05T15:11:26.676Z,101075.97
2019-05-05T15:13:54.070Z,101087.77
2019-05-05T15:16:21.216Z,101095.84
2019-05-05T15:18:47.854Z,101097.95
2019-05-05T15:21:14.653Z,101091.95
2019-05-05T15:23:43.496Z,101093.55
2019-05-05T15:26:12.351Z,101098.07
2019-05-05T15:28:38.987Z,101098.80
2019-05-05T15:31:06.222Z,101098.58
2019-05-05T15:33:33.629Z,101107.64
2019-05-05T15:36:00.679Z,101107.64
2019-05-05T15:38:27.452Z,101103.72
2019-05-05T15:40:54.866Z,101103.72
2019-05-05T15:43:24.112Z,101113.07
2019-05-05T15:45:50.850Z,101098.31
2019-05-05T15:48:18.368Z,101104.66
2019-05-05T15:50:45.070Z,101107.09
2019-05-05T15:53:11.877Z,101111.69
2019-05-05T15:55:38.660Z,101111.09
2019-05-05T15:58:05.821Z,101107.76
2019-05-05T16:00:33.787Z,101115.41
2019-05-05T16:03:04.133Z,101115.41
2019-05-05T16:05:30.434Z,101109.94
2019-05-05T16:07:57.221Z,101109.94
2019-05-05T16:10:25.250Z,101108.48
2019-05-05T16:12:53.935Z,101109.08
2019-05-05T16:15:49.971Z,101108.66
2019-05-05T16:18:35.108Z,101103.72
2019-05-05T16:21:09.023Z,101109.84
2019-05-05T16:23:40.848Z,101109.84
2019-05-05T16:26:07.532Z,101106.89
2019-05-05T16:28:34.435Z,101111.26
2019-05-05T16:31:01.115Z,101111.26
2019-05-05T16:33:27.920Z,101109.40
2019-05-05T16:35:55.257Z,101109.40
2019-05-05T16:38:23.911Z,101098.10
2019-05-05T16:40:50.641Z,101098.10
2019-05-05T16:43:17.714Z,101101.09
2019-05-05T16:45:45.502Z,101096.50
2019-05-05T16:48:12.583Z,101096.50
2019-05-05T16:50:39.264Z,101103.47
2019-05-05T16:53:06.174Z,101100.31
2019-05-05T16:55:38.074Z,101100.46
2019-05-05T16:58:06.749Z,101106.79
2019-05-05T17:00:34.588Z,101105.57
2019-05-05T17:03:01.400Z,101105.57
2019-05-05T17:05:28.081Z,101103.61
2019-05-05T17:07:55.616Z,101106.47
2019-05-05T17:10:24.425Z,101106.89
2019-05-05T17:12:52.069Z,101103.25
2019-05-05T17:15:35.229Z,101104.67
2019-05-05T17:18:33.057Z,101099.30
2019-05-05T17:21:04.704Z,101093.68
2019-05-05T17:23:31.363Z,101108.16
2019-05-05T17:25:58.147Z,101105.19
2019-05-05T17:28:24.929Z,101108.14
2019-05-05T17:30:54.330Z,101103.92
2019-05-05T17:33:21.179Z,101107.71
2019-05-05T17:35:47.955Z,101112.23
2019-05-05T17:38:15.505Z,101110.30
2019-05-05T17:41:00.411Z,101120.70
2019-05-05T17:43:38.489Z,101112.78
2019-05-05T17:46:09.075Z,101120.10
2019-05-05T17:49:05.569Z,101117.72
2019-05-05T17:51:43.666Z,101128.17
2019-05-05T17:54:33.753Z,101130.13
2019-05-05T17:57:00.336Z,101139.44
2019-05-05T17:59:27.213Z,101135.47
2019-05-05T18:01:54.226Z,101138.75
2019-05-05T18:04:21.037Z,101138.12
2019-05-05T18:07:14.260Z,101142.75
2019-05-05T18:10:05.718Z,101132.78
2019-05-05T18:12:51.025Z,101131.78
2019-05-05T18:15:36.588Z,101129.40
2019-05-05T18:18:04.395Z,101133.99
2019-05-05T18:20:34.123Z,101134.40
2019-05-05T18:23:00.950Z,101136.42
2019-05-05T18:25:28.046Z,101134.79
2019-05-05T18:27:55.416Z,101136.77
2019-05-05T18:30:23.927Z,101133.14
2019-05-05T18:32:50.698Z,101133.54
2019-05-05T18:35:18.192Z,101132.77
2019-05-05T18:37:45.237Z,101136.41
2019-05-05T18:40:12.114Z,101130.78
2019-05-05T18:42:38.824Z,101136.28
2019-05-05T18:45:09.441Z,101138.28
2019-05-05T18:47:36.313Z,101132.54
2019-05-05T18:50:04.263Z,101132.80
2019-05-05T18:52:30.894Z,101134.41
2019-05-05T18:54:58.223Z,101138.55
2019-05-05T18:57:25.348Z,101141.91
2019-05-05T18:59:54.012Z,101144.16
2019-05-05T19:02:32.165Z,101146.76
2019-05-05T19:05:21.100Z,101147.12
2019-05-05T19:07:55.913Z,101150.38
2019-05-05T19:10:24.213Z,101154.25
2019-05-05T19:12:54.155Z,101143.75
2019-05-05T19:15:21.391Z,101139.98
2019-05-05T19:17:48.249Z,101146.86
2019-05-05T19:20:24.170Z,101147.45
2019-05-05T19:22:54.330Z,101149.45
2019-05-05T19:25:21.169Z,101148.47
2019-05-05T19:27:48.127Z,101148.31
2019-05-05T19:30:16.413Z,101153.54
2019-05-05T19:32:43.786Z,101156.27
2019-05-05T19:35:10.674Z,101149.77
2019-05-05T19:37:37.665Z,101150.52
2019-05-05T19:40:06.122Z,101154.75
2019-05-05T19:42:33.065Z,101152.25
2019-05-05T19:45:00.117Z,101160.30
2019-05-05T19:47:26.958Z,101154.67
2019-05-05T19:50:09.687Z,101151.95
2019-05-05T19:52:36.486Z,101153.04
2019-05-05T19:55:04.505Z,101152.77
2019-05-05T19:57:35.816Z,101147.51
2019-05-05T20:00:00.283Z,101150.11
2019-05-05T20:02:27.215Z,101153.47
2019-05-05T20:04:54.118Z,101151.80
2019-05-05T20:07:20.834Z,101159.55
2019-05-05T20:09:47.504Z,101152.23
2019-05-05T20:12:14.855Z,101148.00
2019-05-05T20:14:43.507Z,101154.50
2019-05-05T20:17:17.215Z,101145.28
2019-05-05T20:19:45.193Z,101144.64
2019-05-05T20:22:14.362Z,101145.73
2019-05-05T20:24:41.010Z,101139.66
2019-05-05T20:27:10.837Z,101146.86
2019-05-05T20:29:37.676Z,101145.34
2019-05-05T20:32:04.505Z,101145.72
2019-05-05T20:34:40.430Z,101148.53
2019-05-05T20:37:11.406Z,101147.92
2019-05-05T20:39:38.285Z,101145.42
2019-05-05T20:42:05.928Z,101145.27
2019-05-05T20:44:34.205Z,101141.71
2019-05-05T20:47:01.332Z,101139.81
2019-05-05T20:49:28.253Z,101136.44
2019-05-05T20:51:54.993Z,101135.69
2019-05-05T20:54:23.626Z,101134.86
2019-05-05T20:56:50.390Z,101140.59
2019-05-05T20:59:27.140Z,101139.33
2019-05-05T21:01:45.823Z,101133.44
2019-05-05T21:04:14.088Z,101136.78
2019-05-05T21:06:41.226Z,101130.34
2019-05-05T21:09:08.103Z,101134.11
2019-05-05T21:11:35.247Z,101132.00
2019-05-05T21:14:04.033Z,101132.37
2019-05-05T21:16:34.163Z,101134.50
2019-05-05T21:19:00.717Z,101134.89
2019-05-05T21:21:29.333Z,101130.64
2019-05-05T21:23:58.112Z,101134.31
2019-05-05T21:26:45.315Z,101128.84
2019-05-05T21:29:13.932Z,101121.46
2019-05-05T21:31:40.775Z,101118.91
2019-05-05T21:34:07.542Z,101120.03
2019-05-05T21:36:34.213Z,101121.28
2019-05-05T21:39:00.898Z,101119.75
2019-05-05T21:41:27.830Z,101119.25
2019-05-05T21:43:54.519Z,101121.15
2019-05-05T21:46:21.214Z,101113.94
2019-05-05T21:48:47.915Z,101120.62
2019-05-05T21:51:29.208Z,101115.82
2019-05-05T21:54:14.132Z,101114.86
2019-05-05T21:56:58.979Z,101108.36
2019-05-05T21:59:25.886Z,101118.37
2019-05-05T22:01:52.709Z,101111.87
2019-05-05T22:04:19.690Z,101113.99
2019-05-05T22:06:46.475Z,101110.17
2019-05-05T22:09:14.675Z,101105.20
2019-05-05T22:11:43.534Z,101106.12
2019-05-05T22:14:10.277Z,101105.38
2019-05-05T22:16:36.963Z,101101.15
2019-05-05T22:19:05.148Z,101103.84
2019-05-05T22:21:57.041Z,101100.16
2019-05-05T22:24:23.839Z,101100.59
2019-05-05T22:26:51.315Z,101096.89
2019-05-05T22:29:18.342Z,101093.06
2019-05-05T22:31:45.302Z,101090.67
2019-05-05T22:34:14.398Z,101088.55
2019-05-05T22:36:40.789Z,101092.20
2019-05-05T22:39:09.242Z,101084.83
2019-05-05T22:41:36.441Z,101086.45
2019-05-05T22:44:04.455Z,101087.13
2019-05-05T22:46:31.511Z,101085.76
2019-05-05T22:48:58.198Z,101084.36
2019-05-05T22:51:26.148Z,101081.00
2019-05-05T22:53:54.734Z,101077.73
2019-05-05T22:56:24.118Z,101076.02
2019-05-05T22:58:50.930Z,101057.73
2019-05-05T23:01:17.936Z,101076.67
2019-05-05T23:04:03.708Z,101071.82
2019-05-05T23:06:30.924Z,101071.48
2019-05-05T23:08:57.738Z,101074.93
2019-05-05T23:11:24.540Z,101068.34
2019-05-05T23:13:53.725Z,101067.81
2019-05-05T23:16:40.725Z,101071.88
2019-05-05T23:19:07.538Z,101070.94
2019-05-05T23:21:54.296Z,101073.80
2019-05-05T23:24:38.573Z,101069.78
2019-05-05T23:27:05.335Z,101071.19
2019-05-05T23:29:34.001Z,101075.50
2019-05-05T23:32:00.589Z,101077.74
2019-05-05T23:34:27.399Z,101078.86
2019-05-05T23:36:54.087Z,101082.72
2019-05-05T23:39:20.774Z,101080.97
2019-05-05T23:41:47.675Z,101070.39
2019-05-05T23:44:14.475Z,101069.39
2019-05-05T23:46:41.139Z,101059.04
2019-05-05T23:49:07.843Z,101055.52
2019-05-05T23:51:34.896Z,101059.66
2019-05-05T23:54:04.266Z,101062.58
2019-05-05T23:56:31.159Z,101063.20
2019-05-05T23:58:57.991Z,101058.94
